Time;durP1;ratioP1;P1;durP2;ratioP2;P2;SDS_P1;SDS_P2;PMS_P1;PMS_P2;Temp;Humidity;BMP_temperature;BMP_pressure;BME280_temperature;BME280_humidity;BME280_pressure;Samples;Min_cycle;Max_cycle;Signal;HPM_P1;HPM_P2
2021/01/31 00:01:38;;;;;;;29.90;15.73;;;-4.60;99.90;;;;;;5007914;28;20048;-46
2021/01/31 00:04:03;;;;;;;69.30;17.08;;;-4.60;99.90;;;;;;5021993;28;20114;-44
2021/01/31 00:06:29;;;;;;;37.97;14.93;;;-4.80;99.90;;;;;;5026712;28;20032;-48
2021/01/31 00:08:54;;;;;;;33.58;16.67;;;-4.80;99.90;;;;;;5027480;28;20032;-48
2021/01/31 00:11:20;;;;;;;37.10;15.80;;;-4.80;99.90;;;;;;5027427;28;20171;-44
2021/01/31 00:13:47;;;;;;;38.47;16.27;;;-4.80;99.90;;;;;;5027172;28;20099;-44
2021/01/31 00:16:12;;;;;;;39.08;17.30;;;-4.90;99.90;;;;;;5025924;28;20021;-46
2021/01/31 00:18:38;;;;;;;32.55;14.98;;;-4.90;99.90;;;;;;5027722;28;20124;-45
2021/01/31 00:21:04;;;;;;;35.53;15.50;;;-4.90;99.90;;;;;;5027372;28;20540;-46
2021/01/31 00:23:29;;;;;;;32.30;14.35;;;-4.90;99.90;;;;;;5027221;28;20087;-46
2021/01/31 00:25:55;;;;;;;30.65;15.10;;;-5.00;99.90;;;;;;5026646;28;20076;-45
2021/01/31 00:28:23;;;;;;;32.45;15.98;;;-5.00;99.90;;;;;;5026054;28;20064;-45
2021/01/31 00:30:49;;;;;;;28.63;14.07;;;-5.10;99.90;;;;;;5027193;28;20038;-46
2021/01/31 00:33:17;;;;;;;31.90;14.18;;;-5.10;99.90;;;;;;5026930;28;20034;-45
2021/01/31 00:35:42;;;;;;;34.65;14.68;;;-5.10;99.90;;;;;;5026346;28;20036;-46
2021/01/31 00:38:10;;;;;;;29.85;13.80;;;-5.20;99.90;;;;;;5027354;28;20140;-44
2021/01/31 00:40:35;;;;;;;31.63;13.55;;;-5.20;99.90;;;;;;5027336;28;20064;-45
2021/01/31 00:43:01;;;;;;;29.10;14.82;;;-5.20;99.90;;;;;;5025862;28;20284;-44
2021/01/31 00:45:28;;;;;;;30.80;13.18;;;-5.20;99.90;;;;;;5026384;28;20060;-47
2021/01/31 00:47:55;;;;;;;34.35;13.80;;;-5.30;99.90;;;;;;5024840;28;20029;-45
2021/01/31 00:50:27;;;;;;;31.77;13.77;;;-5.30;99.90;;;;;;5027393;28;20026;-45
2021/01/31 00:52:52;;;;;;;30.52;14.73;;;-5.40;99.90;;;;;;5027167;28;20158;-47
2021/01/31 00:55:18;;;;;;;95.78;17.90;;;-5.40;99.90;;;;;;5026362;28;20441;-46
2021/01/31 00:57:45;;;;;;;29.98;13.80;;;-5.40;99.90;;;;;;5027045;28;20044;-46
2021/01/31 01:00:19;;;;;;;37.42;15.38;;;-5.40;99.90;;;;;;5026743;28;20246;-44
2021/01/31 01:02:45;;;;;;;31.23;14.32;;;-5.40;99.90;;;;;;5026944;28;20025;-48
2021/01/31 01:05:12;;;;;;;33.90;14.20;;;-5.40;99.90;;;;;;5026350;28;20044;-44
2021/01/31 01:07:37;;;;;;;31.45;14.30;;;-5.50;99.90;;;;;;5026894;28;20175;-44
2021/01/31 01:10:05;;;;;;;31.10;14.52;;;-5.60;99.90;;;;;;5027214;28;20521;-46
2021/01/31 01:12:31;;;;;;;39.08;14.25;;;-5.60;99.90;;;;;;5026788;28;20034;-45
2021/01/31 01:14:56;;;;;;;31.88;14.15;;;-5.70;99.90;;;;;;5026360;28;20080;-45
2021/01/31 01:17:22;;;;;;;35.05;14.85;;;-5.70;99.90;;;;;;5026779;28;20059;-46
2021/01/31 01:19:47;;;;;;;34.40;15.30;;;-5.90;99.90;;;;;;5026161;28;20037;-45
2021/01/31 01:22:13;;;;;;;31.48;14.32;;;-5.90;99.90;;;;;;5025461;28;20479;-48
2021/01/31 01:24:39;;;;;;;29.25;14.55;;;-5.90;99.90;;;;;;5025935;28;20050;-45
2021/01/31 01:27:04;;;;;;;32.00;15.15;;;-5.90;99.90;;;;;;5028970;28;20453;-44
2021/01/31 01:29:30;;;;;;;34.38;15.45;;;-6.00;99.90;;;;;;5029396;28;20029;-45
2021/01/31 01:31:56;;;;;;;30.80;14.15;;;-6.00;99.90;;;;;;5030193;28;20029;-46
2021/01/31 01:34:21;;;;;;;33.67;14.68;;;-6.10;99.90;;;;;;5029733;28;20105;-45
2021/01/31 01:36:47;;;;;;;32.13;15.10;;;-6.20;99.90;;;;;;5030324;28;20033;-46
2021/01/31 01:39:12;;;;;;;34.42;15.32;;;-6.30;99.90;;;;;;5030004;28;20471;-45
2021/01/31 01:41:43;;;;;;;31.15;14.13;;;-6.40;99.90;;;;;;5029904;28;20540;-44
2021/01/31 01:44:09;;;;;;;33.38;15.07;;;-6.40;99.90;;;;;;5026756;28;20038;-46
2021/01/31 01:46:38;;;;;;;30.55;13.90;;;-6.40;99.90;;;;;;5028332;28;20033;-46
2021/01/31 01:49:11;;;;;;;32.30;13.93;;;-6.50;99.90;;;;;;5029233;28;20067;-46
2021/01/31 01:51:43;;;;;;;30.30;13.77;;;-6.40;99.90;;;;;;5018846;28;20083;-44
2021/01/31 01:54:16;;;;;;;26.55;12.52;;;-6.50;99.90;;;;;;5019850;28;20113;-46
2021/01/31 01:56:46;;;;;;;32.60;14.98;;;-6.50;99.90;;;;;;5027125;28;20040;-46
2021/01/31 01:59:11;;;;;;;28.48;13.63;;;-6.50;99.90;;;;;;5029102;28;20499;-46
2021/01/31 02:01:44;;;;;;;30.92;13.52;;;-6.60;99.90;;;;;;5015279;28;20057;-45
2021/01/31 02:04:11;;;;;;;34.13;12.68;;;-6.60;99.90;;;;;;5026641;28;20032;-45
2021/01/31 02:06:36;;;;;;;28.40;12.73;;;-6.60;99.90;;;;;;5028886;28;20264;-46
2021/01/31 02:09:04;;;;;;;34.28;14.40;;;-6.60;99.90;;;;;;5029106;28;20026;-45
2021/01/31 02:11:29;;;;;;;29.73;13.43;;;-6.70;99.90;;;;;;5029253;28;20017;-47
2021/01/31 02:14:06;;;;;;;28.33;13.23;;;-6.80;99.90;;;;;;5028711;28;20723;-45
2021/01/31 02:16:57;;;;;;;27.85;11.95;;;-6.80;99.90;;;;;;5025638;28;20162;-45
2021/01/31 02:20:14;;;;;;;35.45;13.85;;;-6.90;99.90;;;;;;5024673;28;20038;-45
2021/01/31 02:22:58;;;;;;;27.65;12.25;;;-6.90;99.90;;;;;;4979970;28;20038;-45
2021/01/31 02:25:59;;;;;;;31.23;13.48;;;-6.90;99.90;;;;;;4977632;28;20408;-45
2021/01/31 02:28:52;;;;;;;29.42;12.57;;;-7.00;99.90;;;;;;5012765;28;20055;-48
2021/01/31 02:31:42;;;;;;;29.73;12.48;;;-7.10;99.90;;;;;;5027054;28;20453;-47
2021/01/31 02:34:12;;;;;;;29.13;12.13;;;-7.20;99.90;;;;;;5028345;28;20009;-45
2021/01/31 02:37:12;;;;;;;30.50;12.52;;;-7.10;99.90;;;;;;5028059;28;20021;-43
2021/01/31 02:39:43;;;;;;;29.52;12.07;;;-7.10;99.90;;;;;;5026646;28;20025;-45
2021/01/31 02:45:28;;;;;;;28.30;12.68;;;-7.20;99.90;;;;;;5027443;28;20056;-48
2021/01/31 02:48:13;;;;;;;27.55;12.00;;;-7.10;99.90;;;;;;5025976;28;20092;-44
2021/01/31 02:50:52;;;;;;;25.98;12.57;;;-7.10;99.90;;;;;;5018368;28;20022;-44
2021/01/31 02:53:38;;;;;;;22.17;11.45;;;-7.20;99.90;;;;;;5024341;28;20029;-47
2021/01/31 02:56:12;;;;;;;21.08;10.00;;;-7.20;99.90;;;;;;5028411;28;20032;-45
2021/01/31 02:58:43;;;;;;;24.15;11.63;;;-7.30;99.90;;;;;;5028262;28;20079;-44
2021/01/31 03:01:21;;;;;;;24.70;10.88;;;-7.50;99.90;;;;;;5028834;28;20128;-45
2021/01/31 03:03:55;;;;;;;23.15;10.65;;;-7.50;99.90;;;;;;5028643;28;20052;-45
2021/01/31 03:06:26;;;;;;;22.92;9.98;;;-7.40;99.90;;;;;;5028025;28;20099;-46
2021/01/31 03:08:59;;;;;;;27.67;11.40;;;-7.50;99.90;;;;;;5028713;28;20053;-44
2021/01/31 03:11:36;;;;;;;25.48;13.13;;;-7.40;99.90;;;;;;5028627;28;20079;-43
2021/01/31 03:14:10;;;;;;;26.42;13.20;;;-7.40;99.90;;;;;;5011726;28;20036;-44
2021/01/31 03:16:51;;;;;;;26.08;11.43;;;-7.40;99.90;;;;;;5007506;28;20084;-45
2021/01/31 03:19:25;;;;;;;28.33;13.15;;;-7.30;99.90;;;;;;5008135;28;20026;-44
2021/01/31 03:21:57;;;;;;;27.52;13.43;;;-7.40;99.90;;;;;;5008584;28;20449;-45
2021/01/31 03:24:33;;;;;;;24.70;12.40;;;-7.40;99.90;;;;;;5007721;28;20030;-43
2021/01/31 03:27:16;;;;;;;32.42;13.05;;;-7.40;99.90;;;;;;5008780;28;20034;-44
2021/01/31 03:29:41;;;;;;;27.20;12.50;;;-7.40;99.90;;;;;;5008357;28;20542;-46
2021/01/31 03:32:17;;;;;;;30.30;14.18;;;-7.50;99.90;;;;;;5008159;28;20105;-46
2021/01/31 03:34:57;;;;;;;26.55;12.98;;;-7.50;99.90;;;;;;5007876;28;20052;-44
2021/01/31 03:37:31;;;;;;;29.60;14.15;;;-7.60;99.90;;;;;;5008302;28;20038;-45
2021/01/31 03:39:59;;;;;;;28.27;13.57;;;-7.50;99.90;;;;;;5008322;28;20327;-44
2021/01/31 03:42:24;;;;;;;25.45;11.43;;;-7.60;99.90;;;;;;5008005;28;20033;-47
2021/01/31 03:44:53;;;;;;;31.30;15.25;;;-7.60;99.90;;;;;;5007315;28;20034;-48
2021/01/31 03:47:35;;;;;;;25.90;12.85;;;-7.70;99.90;;;;;;5007178;28;20026;-46
2021/01/31 03:50:02;;;;;;;32.92;13.00;;;-7.70;99.90;;;;;;5007384;28;20402;-44
2021/01/31 03:52:29;;;;;;;25.40;11.63;;;-7.70;99.90;;;;;;5008075;28;20040;-45
2021/01/31 03:54:55;;;;;;;30.20;13.73;;;-7.70;99.90;;;;;;4989694;28;20029;-46
2021/01/31 03:57:31;;;;;;;28.80;12.52;;;-7.60;99.90;;;;;;5008225;28;20037;-45
2021/01/31 04:00:10;;;;;;;21.67;11.05;;;-7.70;99.90;;;;;;5008056;28;20040;-46
2021/01/31 04:02:41;;;;;;;21.63;11.35;;;-7.70;99.90;;;;;;5007989;28;20310;-44
2021/01/31 04:05:08;;;;;;;24.55;11.48;;;-7.80;99.90;;;;;;5007588;28;20026;-47
2021/01/31 04:07:37;;;;;;;19.45;10.15;;;-7.80;99.90;;;;;;5007885;28;20083;-45
2021/01/31 04:10:05;;;;;;;20.92;9.25;;;-7.80;99.90;;;;;;5007718;28;20014;-46
2021/01/31 04:12:34;;;;;;;23.20;11.13;;;-7.80;99.90;;;;;;5012181;28;20048;-44
2021/01/31 04:15:19;;;;;;;20.80;9.68;;;-7.80;99.90;;;;;;5026765;28;20030;-45
2021/01/31 04:17:47;;;;;;;17.38;8.70;;;-7.90;99.90;;;;;;5026200;28;20048;-47
2021/01/31 04:20:13;;;;;;;24.52;10.48;;;-8.00;99.90;;;;;;5027286;28;20269;-44
2021/01/31 04:22:38;;;;;;;21.08;9.32;;;-8.00;99.90;;;;;;5027331;28;20033;-45
2021/01/31 04:25:04;;;;;;;24.90;9.75;;;-8.00;99.90;;;;;;5026759;28;20383;-45
2021/01/31 04:27:30;;;;;;;21.83;11.23;;;-7.90;99.90;;;;;;5026843;28;20114;-45
2021/01/31 04:29:55;;;;;;;20.77;9.48;;;-8.00;99.90;;;;;;5027242;28;20057;-46
2021/01/31 04:32:22;;;;;;;24.65;9.80;;;-8.00;99.90;;;;;;5027336;28;20030;-45
2021/01/31 04:34:47;;;;;;;18.88;8.45;;;-8.00;99.90;;;;;;5026720;28;20104;-44
2021/01/31 04:37:13;;;;;;;22.58;10.27;;;-8.10;99.90;;;;;;5009434;28;20191;-45
2021/01/31 04:39:38;;;;;;;19.77;9.40;;;-8.10;99.90;;;;;;5027139;28;20032;-45
2021/01/31 04:42:05;;;;;;;21.05;9.90;;;-8.20;99.90;;;;;;5027502;28;20501;-44
2021/01/31 04:44:31;;;;;;;17.60;8.27;;;-8.20;99.90;;;;;;5008657;28;20029;-44
2021/01/31 04:47:04;;;;;;;18.70;8.65;;;-8.20;99.90;;;;;;5026691;28;20030;-45
2021/01/31 04:49:46;;;;;;;19.52;8.90;;;-8.10;99.90;;;;;;5026291;28;20363;-45
2021/01/31 04:52:25;;;;;;;24.00;10.18;;;-8.20;99.90;;;;;;5027107;28;20053;-44
2021/01/31 04:55:10;;;;;;;18.75;9.45;;;-8.30;99.90;;;;;;5026243;28;20089;-44
2021/01/31 04:57:35;;;;;;;20.85;9.38;;;-8.30;99.90;;;;;;5009274;28;20487;-45
2021/01/31 05:00:03;;;;;;;24.65;9.82;;;-8.40;99.90;;;;;;5027088;28;20132;-44
2021/01/31 05:02:34;;;;;;;23.05;10.25;;;-8.40;99.90;;;;;;5029484;28;20136;-45
2021/01/31 05:05:02;;;;;;;20.15;9.75;;;-8.30;99.90;;;;;;5029681;28;20052;-47
2021/01/31 05:07:43;;;;;;;22.60;9.10;;;-8.40;99.90;;;;;;5030937;28;20444;-44
2021/01/31 05:10:10;;;;;;;20.55;8.23;;;-8.30;99.90;;;;;;5030477;28;20389;-45
2021/01/31 05:12:49;;;;;;;19.20;8.00;;;-8.30;99.90;;;;;;5030627;28;20029;-47
2021/01/31 05:15:20;;;;;;;24.02;8.77;;;-8.30;99.90;;;;;;5012200;28;20475;-45
2021/01/31 05:17:47;;;;;;;17.10;8.32;;;-8.30;99.90;;;;;;5030306;28;20053;-45
2021/01/31 05:20:17;;;;;;;14.85;8.00;;;-8.20;99.90;;;;;;5029675;28;20510;-45
2021/01/31 05:22:47;;;;;;;18.75;8.32;;;-8.20;99.90;;;;;;5030376;28;20029;-45
2021/01/31 05:25:16;;;;;;;18.33;8.10;;;-8.20;99.90;;;;;;5030307;28;20029;-45
2021/01/31 05:27:42;;;;;;;20.95;8.75;;;-8.20;99.90;;;;;;5012682;28;20059;-44
2021/01/31 05:30:09;;;;;;;20.98;11.00;;;-8.30;99.90;;;;;;5030743;28;20032;-45
2021/01/31 05:32:59;;;;;;;22.15;9.45;;;-8.40;99.90;;;;;;5030170;28;20028;-44
2021/01/31 05:35:25;;;;;;;17.50;8.63;;;-8.40;99.90;;;;;;5030000;28;20076;-44
2021/01/31 05:37:51;;;;;;;19.45;8.90;;;-8.40;99.90;;;;;;5030583;28;20132;-44
2021/01/31 05:40:36;;;;;;;19.25;8.95;;;-8.50;99.90;;;;;;5012488;28;20120;-44
2021/01/31 05:43:04;;;;;;;20.55;9.43;;;-8.50;99.90;;;;;;5012330;28;20040;-45
2021/01/31 05:45:39;;;;;;;23.05;10.40;;;-8.50;99.90;;;;;;5029450;28;20124;-46
2021/01/31 05:48:21;;;;;;;17.95;9.30;;;-8.50;99.90;;;;;;5029209;28;20056;-45
2021/01/31 05:50:47;;;;;;;24.83;9.80;;;-8.50;99.90;;;;;;5030191;28;20376;-45
2021/01/31 05:53:32;;;;;;;17.35;9.35;;;-8.50;99.90;;;;;;5029870;28;20032;-44
2021/01/31 05:56:19;;;;;;;18.80;9.55;;;-8.50;99.90;;;;;;5029571;28;20061;-45
2021/01/31 05:58:45;;;;;;;17.52;8.32;;;-8.50;99.90;;;;;;5029883;28;20030;-45
2021/01/31 06:01:12;;;;;;;16.42;8.00;;;-8.50;99.90;;;;;;5029698;28;20032;-45
2021/01/31 06:03:38;;;;;;;19.83;9.02;;;-8.40;99.90;;;;;;5029582;28;20109;-45
2021/01/31 06:06:15;;;;;;;16.90;8.20;;;-8.50;99.90;;;;;;5022530;28;20037;-45
2021/01/31 06:08:47;;;;;;;20.02;8.95;;;-8.50;99.90;;;;;;5029301;28;20806;-45
2021/01/31 06:11:45;;;;;;;18.60;8.23;;;-8.60;99.90;;;;;;5029510;28;20025;-46
2021/01/31 06:14:13;;;;;;;18.60;8.43;;;-8.70;99.90;;;;;;5035922;28;20053;-44
2021/01/31 06:16:41;;;;;;;15.80;7.75;;;-8.60;99.90;;;;;;5029045;28;20026;-45
2021/01/31 06:19:27;;;;;;;16.13;9.18;;;-8.70;99.90;;;;;;5024008;28;20028;-46
2021/01/31 06:21:52;;;;;;;17.60;8.48;;;-8.80;99.90;;;;;;5009440;28;20034;-45
2021/01/31 06:24:28;;;;;;;17.77;8.95;;;-8.70;99.90;;;;;;5009688;28;20480;-45
2021/01/31 06:26:58;;;;;;;15.05;7.32;;;-8.60;99.90;;;;;;5009806;28;20383;-49
2021/01/31 06:29:47;;;;;;;14.30;6.90;;;-8.80;99.90;;;;;;5009215;28;20411;-46
2021/01/31 06:32:19;;;;;;;16.60;7.15;;;-8.80;99.90;;;;;;5017707;28;20013;-45
2021/01/31 06:34:52;;;;;;;15.70;7.95;;;-8.80;99.90;;;;;;5018238;28;20079;-47
2021/01/31 06:37:18;;;;;;;16.27;7.20;;;-8.80;99.90;;;;;;5018441;28;20021;-46
2021/01/31 06:40:08;;;;;;;16.15;7.38;;;-8.80;99.90;;;;;;5019632;28;20482;-46
2021/01/31 06:42:45;;;;;;;14.82;7.47;;;-8.90;99.90;;;;;;5020415;28;20034;-46
2021/01/31 06:45:16;;;;;;;16.42;8.52;;;-9.00;99.90;;;;;;5018321;28;20025;-45
2021/01/31 06:48:02;;;;;;;17.10;8.25;;;-8.90;99.90;;;;;;5017345;28;20144;-45
2021/01/31 06:51:11;;;;;;;16.00;8.23;;;-8.90;99.90;;;;;;5024359;28;20029;-45
2021/01/31 06:54:04;;;;;;;14.18;7.80;;;-8.80;99.90;;;;;;5022225;28;20091;-48
2021/01/31 06:56:49;;;;;;;17.85;9.10;;;-8.80;99.90;;;;;;5021399;28;20490;-47
2021/01/31 06:59:26;;;;;;;20.98;9.95;;;-8.80;99.90;;;;;;5015103;28;20033;-49
2021/01/31 07:02:23;;;;;;;20.08;9.43;;;-8.80;99.90;;;;;;5042469;28;20029;-45
2021/01/31 07:05:01;;;;;;;22.63;9.65;;;-8.80;99.90;;;;;;5020221;28;20621;-45
2021/01/31 07:07:46;;;;;;;20.80;10.20;;;-8.80;99.90;;;;;;5019294;28;20029;-45
2021/01/31 07:10:36;;;;;;;18.98;10.13;;;-8.80;99.90;;;;;;5020160;28;20057;-45
2021/01/31 07:13:35;;;;;;;19.77;9.25;;;-8.80;99.90;;;;;;5019527;28;20445;-47
2021/01/31 07:16:19;;;;;;;24.52;10.38;;;-9.00;99.90;;;;;;5017672;28;20186;-46
2021/01/31 07:19:02;;;;;;;18.08;9.65;;;-8.90;99.90;;;;;;5019768;28;20048;-48
2021/01/31 07:21:51;;;;;;;19.35;9.68;;;-8.90;99.90;;;;;;5028863;28;20379;-46
2021/01/31 07:24:38;;;;;;;20.27;10.48;;;-8.90;99.90;;;;;;5016509;28;20095;-46
2021/01/31 07:27:12;;;;;;;20.77;10.57;;;-8.80;99.90;;;;;;5019442;28;20044;-46
2021/01/31 07:30:03;;;;;;;18.50;9.43;;;-8.80;99.90;;;;;;5016998;28;20022;-49
2021/01/31 07:32:46;;;;;;;;;;;-8.90;99.90;;;;;;5017442;28;20037;-47
2021/01/31 07:35:14;;;;;;;17.13;8.55;;;-8.90;99.90;;;;;;5010433;28;20399;-46
2021/01/31 07:37:42;;;;;;;20.15;9.65;;;-9.00;99.90;;;;;;4990710;28;20033;-45
2021/01/31 07:40:16;;;;;;;20.58;10.85;;;-9.00;99.90;;;;;;5007139;28;20418;-47
2021/01/31 07:42:44;;;;;;;20.58;10.63;;;-9.00;99.90;;;;;;5008287;28;20030;-45
2021/01/31 07:45:19;;;;;;;20.13;9.38;;;-9.00;99.90;;;;;;5007845;28;20277;-45
2021/01/31 07:47:47;;;;;;;21.35;9.35;;;-8.90;99.90;;;;;;5015372;28;20036;-46
2021/01/31 07:50:36;;;;;;;28.15;11.75;;;-8.80;99.90;;;;;;5021367;28;20037;-45
2021/01/31 07:53:03;;;;;;;17.67;10.30;;;-8.70;99.90;;;;;;5020397;28;20027;-46
2021/01/31 07:55:42;;;;;;;22.23;10.18;;;-8.70;99.90;;;;;;5015779;28;20087;-46
2021/01/31 07:58:20;;;;;;;20.95;10.90;;;-8.60;99.90;;;;;;5017259;28;20487;-46
2021/01/31 08:00:49;;;;;;;22.58;10.00;;;-8.50;99.90;;;;;;5014671;28;20069;-46
2021/01/31 08:03:37;;;;;;;18.80;9.67;;;-8.50;99.90;;;;;;5024307;28;20013;-47
2021/01/31 08:06:19;;;;;;;18.35;8.95;;;-8.40;99.90;;;;;;5025798;28;20272;-45
2021/01/31 08:08:50;;;;;;;18.85;9.75;;;-8.40;99.90;;;;;;5027290;28;20030;-46
2021/01/31 08:11:18;;;;;;;19.08;9.82;;;-8.30;99.90;;;;;;5027638;28;20105;-46
2021/01/31 08:13:47;;;;;;;19.48;9.93;;;-8.20;99.90;;;;;;5027474;28;20162;-46
2021/01/31 08:16:41;;;;;;;18.45;9.52;;;-8.20;99.90;;;;;;5026670;28;20025;-46
2021/01/31 08:19:09;;;;;;;17.98;9.30;;;-8.10;99.90;;;;;;5026269;28;20021;-45
2021/01/31 08:21:51;;;;;;;17.13;9.05;;;-8.10;99.90;;;;;;5025598;28;20052;-45
2021/01/31 08:24:54;;;;;;;17.77;8.43;;;-8.10;99.90;;;;;;5027309;28;20030;-46
2021/01/31 08:27:42;;;;;;;16.88;8.77;;;-7.90;99.90;;;;;;5019519;28;20034;-45
2021/01/31 08:30:32;;;;;;;17.83;8.57;;;-7.90;99.90;;;;;;5027745;28;20052;-45
2021/01/31 08:33:19;;;;;;;24.58;10.60;;;-7.70;99.90;;;;;;5025305;28;20517;-46
2021/01/31 08:35:44;;;;;;;20.73;10.43;;;-7.60;99.90;;;;;;5025706;28;20088;-45
2021/01/31 08:38:16;;;;;;;16.77;9.52;;;-7.50;99.90;;;;;;5027707;28;20116;-45
2021/01/31 08:41:01;;;;;;;21.83;10.25;;;-7.50;99.90;;;;;;5031536;28;20212;-45
2021/01/31 08:43:55;;;;;;;22.35;11.45;;;-7.40;99.90;;;;;;5031900;28;20208;-46
2021/01/31 08:46:25;;;;;;;24.70;11.02;;;-7.30;99.90;;;;;;5030185;28;20112;-45
2021/01/31 08:48:57;;;;;;;20.67;9.07;;;-7.20;99.90;;;;;;5031291;28;20108;-45
2021/01/31 08:51:32;;;;;;;21.23;10.38;;;-7.10;99.90;;;;;;5021537;28;20037;-46
2021/01/31 08:54:18;;;;;;;21.98;10.38;;;-7.10;99.90;;;;;;5013479;28;20116;-46
2021/01/31 08:56:46;;;;;;;19.95;9.60;;;-6.90;99.90;;;;;;5030675;28;20021;-44
2021/01/31 08:59:34;;;;;;;20.65;9.48;;;-6.80;99.90;;;;;;5028040;28;20033;-44
2021/01/31 09:01:59;;;;;;;19.67;9.35;;;-6.70;99.90;;;;;;5030411;28;20456;-45
2021/01/31 09:04:26;;;;;;;17.15;8.98;;;-6.60;99.90;;;;;;5028885;28;20060;-45
2021/01/31 09:06:53;;;;;;;19.95;9.15;;;-6.60;99.90;;;;;;5030568;28;20025;-45
2021/01/31 09:09:27;;;;;;;17.20;8.93;;;-6.50;99.90;;;;;;5030566;28;20033;-45
2021/01/31 09:11:56;;;;;;;20.30;9.00;;;-6.40;99.90;;;;;;5029845;28;20040;-44
2021/01/31 09:14:37;;;;;;;20.55;10.40;;;-6.20;99.90;;;;;;5029980;28;20624;-44
2021/01/31 09:17:19;;;;;;;18.52;8.88;;;-6.10;99.90;;;;;;5030446;28;20037;-44
2021/01/31 09:19:45;;;;;;;21.67;10.27;;;-6.00;99.90;;;;;;5029816;28;20108;-43
2021/01/31 09:22:19;;;;;;;25.77;10.80;;;-5.80;99.90;;;;;;5030378;28;20148;-43
2021/01/31 09:24:51;;;;;;;16.05;8.55;;;-5.70;99.90;;;;;;5029664;28;20029;-45
2021/01/31 09:27:23;;;;;;;17.38;9.15;;;-5.60;99.90;;;;;;5028908;28;20036;-46
2021/01/31 09:29:54;;;;;;;22.88;10.60;;;-5.60;99.90;;;;;;5030757;28;20018;-46
2021/01/31 09:32:24;;;;;;;17.50;9.50;;;-5.40;99.90;;;;;;5013598;28;20100;-45
2021/01/31 09:34:52;;;;;;;22.35;10.55;;;-5.30;99.90;;;;;;5029647;28;20483;-45
2021/01/31 09:37:26;;;;;;;22.40;10.45;;;-5.30;99.90;;;;;;5029350;28;20483;-44
2021/01/31 09:39:55;;;;;;;19.52;10.15;;;-5.10;99.90;;;;;;5029863;28;20037;-45
2021/01/31 09:42:27;;;;;;;20.17;10.15;;;-5.10;99.90;;;;;;5029167;28;20107;-45
2021/01/31 09:44:57;;;;;;;24.15;11.88;;;-4.90;99.90;;;;;;5028891;28;20052;-46
2021/01/31 09:47:23;;;;;;;24.20;11.95;;;-4.70;99.90;;;;;;5023856;28;20037;-45
2021/01/31 09:49:58;;;;;;;27.10;13.13;;;-4.70;99.90;;;;;;5019189;28;20025;-47
2021/01/31 09:52:24;;;;;;;21.75;12.07;;;-4.50;99.90;;;;;;5000862;28;20033;-47
2021/01/31 09:54:50;;;;;;;30.42;13.25;;;-4.30;99.90;;;;;;5024338;28;20025;-47
2021/01/31 09:57:26;;;;;;;27.85;13.07;;;-4.20;99.90;;;;;;5020857;28;20088;-46
2021/01/31 10:00:09;;;;;;;25.48;14.40;;;-4.10;99.90;;;;;;5026932;28;20049;-47
2021/01/31 10:02:36;;;;;;;25.02;13.15;;;-3.80;99.90;;;;;;5027971;28;20025;-46
2021/01/31 10:05:06;;;;;;;26.83;14.00;;;-3.70;99.90;;;;;;5027039;28;20056;-46
2021/01/31 10:07:37;;;;;;;24.27;14.23;;;-3.50;99.90;;;;;;5028278;28;20112;-47
2021/01/31 10:10:30;;;;;;;23.15;13.07;;;-3.30;99.90;;;;;;5022771;28;20024;-46
2021/01/31 10:13:30;;;;;;;26.90;15.20;;;-3.10;99.90;;;;;;5028435;28;20501;-47
2021/01/31 10:16:02;;;;;;;25.23;13.73;;;-2.90;99.90;;;;;;5028184;28;20025;-46
2021/01/31 10:18:32;;;;;;;22.70;13.68;;;-2.60;99.90;;;;;;5028494;28;20439;-47
2021/01/31 10:21:22;;;;;;;24.42;14.20;;;-2.10;99.90;;;;;;5028342;28;20375;-46
2021/01/31 10:24:17;;;;;;;19.57;12.80;;;-0.40;99.90;;;;;;5012881;28;20107;-46
2021/01/31 10:26:45;;;;;;;19.45;12.70;;;2.30;99.90;;;;;;5028164;28;20280;-46
2021/01/31 10:29:21;;;;;;;15.75;11.80;;;5.40;99.90;;;;;;5028788;28;20045;-46
2021/01/31 10:31:47;;;;;;;16.10;12.38;;;7.90;81.20;;;;;;5028465;28;20414;-48
2021/01/31 10:34:37;;;;;;;15.57;12.75;;;9.60;60.10;;;;;;5028264;28;20628;-47
2021/01/31 10:37:14;;;;;;;11.70;9.77;;;10.50;53.70;;;;;;5027846;28;20041;-47
2021/01/31 10:39:39;;;;;;;11.98;10.13;;;11.50;52.70;;;;;;5028333;28;20025;-48
2021/01/31 10:42:05;;;;;;;8.98;8.07;;;12.20;49.50;;;;;;5028217;28;20120;-47
2021/01/31 10:44:31;;;;;;;9.07;7.68;;;12.60;47.20;;;;;;5028072;28;20113;-48
2021/01/31 10:46:57;;;;;;;8.57;7.28;;;13.60;46.50;;;;;;5027510;28;20426;-46
2021/01/31 10:49:22;;;;;;;7.53;6.70;;;13.70;45.20;;;;;;5028472;28;20026;-46
2021/01/31 10:51:48;;;;;;;8.02;7.22;;;14.50;43.60;;;;;;5028446;28;20315;-49
2021/01/31 10:54:15;;;;;;;9.20;7.72;;;15.30;41.70;;;;;;5028188;28;20040;-47
2021/01/31 10:56:41;;;;;;;9.70;8.70;;;15.80;41.00;;;;;;5027329;28;20541;-47
2021/01/31 10:59:06;;;;;;;9.23;7.57;;;16.10;39.30;;;;;;5027845;28;20056;-49
2021/01/31 11:01:32;;;;;;;8.23;6.85;;;16.00;39.50;;;;;;5027385;28;20096;-47
2021/01/31 11:03:58;;;;;;;8.90;8.07;;;16.20;39.70;;;;;;5027478;28;20542;-46
2021/01/31 11:06:24;;;;;;;7.93;7.20;;;16.80;37.40;;;;;;5027482;28;20307;-46
2021/01/31 11:08:51;;;;;;;7.60;6.80;;;16.50;37.30;;;;;;5027126;28;20025;-47
2021/01/31 11:11:18;;;;;;;7.93;7.18;;;16.50;37.60;;;;;;5027666;28;20072;-47
2021/01/31 11:13:44;;;;;;;6.18;5.65;;;16.10;36.30;;;;;;5027919;28;20041;-48
2021/01/31 11:16:09;;;;;;;7.20;6.50;;;16.30;36.70;;;;;;5027002;28;20057;-46
2021/01/31 11:18:35;;;;;;;9.15;7.72;;;16.20;36.70;;;;;;5027278;28;20032;-47
2021/01/31 11:21:00;;;;;;;6.80;6.07;;;16.20;36.90;;;;;;5027469;28;20137;-47
2021/01/31 11:23:26;;;;;;;6.45;5.85;;;16.40;36.90;;;;;;5027519;28;20380;-46
2021/01/31 11:25:51;;;;;;;7.85;6.50;;;16.00;37.60;;;;;;5027272;28;20087;-48
2021/01/31 11:28:17;;;;;;;5.82;5.32;;;15.80;36.90;;;;;;5027730;28;20043;-49
2021/01/31 11:30:44;;;;;;;6.90;6.20;;;16.20;36.90;;;;;;5027782;28;20026;-49
2021/01/31 11:33:09;;;;;;;6.65;5.90;;;16.10;36.20;;;;;;5026874;28;20021;-48
2021/01/31 11:35:35;;;;;;;7.57;6.88;;;16.60;36.00;;;;;;5017016;28;20026;-49
2021/01/31 11:38:02;;;;;;;6.88;6.22;;;16.50;36.00;;;;;;5014843;28;20026;-47
2021/01/31 11:40:28;;;;;;;6.88;6.28;;;16.10;35.50;;;;;;5014879;28;20027;-48
2021/01/31 11:42:54;;;;;;;9.00;8.00;;;15.50;36.80;;;;;;5014619;28;20542;-46
2021/01/31 11:45:22;;;;;;;6.57;5.90;;;15.20;36.80;;;;;;5017855;28;20555;-46
2021/01/31 11:47:48;;;;;;;9.68;8.68;;;14.90;37.70;;;;;;5017854;28;20064;-46
2021/01/31 11:50:15;;;;;;;8.00;6.43;;;14.50;39.20;;;;;;5014774;28;20034;-46
2021/01/31 11:52:41;;;;;;;11.20;10.13;;;13.90;39.80;;;;;;5007639;28;20061;-47
2021/01/31 11:55:07;;;;;;;10.55;9.45;;;14.00;39.30;;;;;;5004587;28;20104;-45
2021/01/31 11:57:37;;;;;;;7.85;7.07;;;14.00;40.00;;;;;;5003797;28;20107;-45
2021/01/31 12:00:09;;;;;;;12.63;11.32;;;14.30;39.00;;;;;;5010216;28;20235;-46
2021/01/31 12:02:34;;;;;;;8.48;7.68;;;14.30;39.60;;;;;;5010129;28;20071;-48
2021/01/31 12:05:00;;;;;;;16.52;12.80;;;13.70;40.20;;;;;;5007026;28;20033;-45
2021/01/31 12:07:26;;;;;;;9.65;7.38;;;13.90;39.80;;;;;;5016230;28;20049;-45
2021/01/31 12:09:52;;;;;;;7.57;6.63;;;13.60;39.90;;;;;;5015247;28;20436;-46
2021/01/31 12:12:17;;;;;;;7.43;6.05;;;13.40;40.60;;;;;;5010019;28;20100;-50
2021/01/31 12:14:43;;;;;;;7.78;6.65;;;13.60;40.00;;;;;;5009839;28;20029;-50
2021/01/31 12:17:08;;;;;;;7.97;6.88;;;14.00;40.20;;;;;;5013258;28;20036;-46
2021/01/31 12:19:35;;;;;;;8.05;6.13;;;13.90;40.40;;;;;;5019725;28;20034;-47
2021/01/31 12:22:00;;;;;;;9.15;7.32;;;13.90;39.20;;;;;;5017316;28;20113;-48
2021/01/31 12:24:26;;;;;;;7.07;6.32;;;13.80;39.40;;;;;;5015082;28;20319;-48
2021/01/31 12:26:52;;;;;;;7.57;6.57;;;13.30;40.50;;;;;;5017214;28;20029;-49
2021/01/31 12:29:17;;;;;;;7.03;6.32;;;12.90;40.20;;;;;;5025493;28;20112;-45
2021/01/31 12:31:43;;;;;;;8.32;7.25;;;13.00;41.90;;;;;;5024969;28;20465;-46
2021/01/31 12:34:08;;;;;;;8.90;7.65;;;12.60;42.80;;;;;;5006762;28;20021;-47
2021/01/31 12:36:35;;;;;;;9.68;8.07;;;12.60;42.00;;;;;;5024719;28;20030;-47
2021/01/31 12:39:00;;;;;;;9.40;7.78;;;12.30;42.60;;;;;;5025371;28;20133;-48
2021/01/31 12:41:26;;;;;;;8.55;7.65;;;12.00;42.80;;;;;;5026453;28;20120;-49
2021/01/31 12:43:51;;;;;;;8.65;7.75;;;11.50;42.60;;;;;;5026331;28;20038;-48
2021/01/31 12:46:18;;;;;;;8.80;7.93;;;11.20;44.60;;;;;;5025486;28;20026;-47
2021/01/31 12:48:43;;;;;;;10.13;8.95;;;11.00;45.80;;;;;;5025912;28;20104;-47
2021/01/31 12:51:09;;;;;;;10.00;8.27;;;9.90;46.60;;;;;;5018116;28;20104;-50
2021/01/31 12:53:34;;;;;;;11.05;7.90;;;9.20;48.50;;;;;;4997884;28;20273;-47
2021/01/31 12:56:00;;;;;;;9.68;7.90;;;9.00;49.60;;;;;;5016209;28;20476;-47
2021/01/31 12:58:25;;;;;;;10.60;8.63;;;8.90;49.80;;;;;;5015320;28;20018;-49
2021/01/31 13:00:51;;;;;;;11.23;9.32;;;8.60;50.20;;;;;;5017760;28;20029;-46
2021/01/31 13:03:18;;;;;;;12.18;9.52;;;8.00;53.70;;;;;;5025137;28;20155;-48